sensor_id;sensor_type;location;lat;lon;timestamp;P1;durP1;ratioP1;P2;durP2;ratioP2
3901;SDS011;1966;49.908;9.156;2023-04-25T00:03:13;10.20;;;7.60;;
3901;SDS011;1966;49.908;9.156;2023-04-25T00:08:12;9.40;;;7.53;;
3901;SDS011;1966;49.908;9.156;2023-04-25T00:13:13;14.83;;;8.30;;
3901;SDS011;1966;49.908;9.156;2023-04-25T00:18:12;11.97;;;8.60;;
3901;SDS011;1966;49.908;9.156;2023-04-25T00:23:12;12.47;;;8.63;;
3901;SDS011;1966;49.908;9.156;2023-04-25T00:28:16;10.03;;;6.50;;
3901;SDS011;1966;49.908;9.156;2023-04-25T00:33:16;8.10;;;6.13;;
3901;SDS011;1966;49.908;9.156;2023-04-25T00:38:15;7.47;;;6.43;;
3901;SDS011;1966;49.908;9.156;2023-04-25T00:43:14;7.50;;;5.90;;
3901;SDS011;1966;49.908;9.156;2023-04-25T00:48:15;6.60;;;5.83;;
3901;SDS011;1966;49.908;9.156;2023-04-25T00:53:15;5.53;;;4.93;;
3901;SDS011;1966;49.908;9.156;2023-04-25T00:58:14;5.70;;;5.03;;
3901;SDS011;1966;49.908;9.156;2023-04-25T01:03:15;7.03;;;5.50;;
3901;SDS011;1966;49.908;9.156;2023-04-25T01:08:15;6.40;;;5.30;;
3901;SDS011;1966;49.908;9.156;2023-04-25T01:13:14;8.20;;;5.50;;
3901;SDS011;1966;49.908;9.156;2023-04-25T01:18:15;6.50;;;5.27;;
3901;SDS011;1966;49.908;9.156;2023-04-25T01:23:15;7.13;;;5.60;;
3901;SDS011;1966;49.908;9.156;2023-04-25T01:28:15;6.40;;;5.60;;
3901;SDS011;1966;49.908;9.156;2023-04-25T01:33:14;8.90;;;6.10;;
3901;SDS011;1966;49.908;9.156;2023-04-25T01:38:15;7.70;;;6.50;;
3901;SDS011;1966;49.908;9.156;2023-04-25T01:43:15;7.93;;;6.30;;
3901;SDS011;1966;49.908;9.156;2023-04-25T01:48:14;6.53;;;5.70;;
3901;SDS011;1966;49.908;9.156;2023-04-25T01:53:13;7.10;;;5.60;;
3901;SDS011;1966;49.908;9.156;2023-04-25T01:58:14;8.00;;;5.77;;
3901;SDS011;1966;49.908;9.156;2023-04-25T02:03:13;8.30;;;5.60;;
3901;SDS011;1966;49.908;9.156;2023-04-25T02:08:13;9.20;;;5.90;;
3901;SDS011;1966;49.908;9.156;2023-04-25T02:13:12;6.60;;;5.77;;
3901;SDS011;1966;49.908;9.156;2023-04-25T02:18:13;8.47;;;5.90;;
3901;SDS011;1966;49.908;9.156;2023-04-25T02:23:14;8.70;;;7.03;;
3901;SDS011;1966;49.908;9.156;2023-04-25T02:28:13;7.67;;;6.50;;
3901;SDS011;1966;49.908;9.156;2023-04-25T02:33:14;10.00;;;7.50;;
3901;SDS011;1966;49.908;9.156;2023-04-25T02:38:14;14.03;;;7.67;;
3901;SDS011;1966;49.908;9.156;2023-04-25T02:43:14;10.33;;;7.70;;
3901;SDS011;1966;49.908;9.156;2023-04-25T02:48:15;10.17;;;7.30;;
3901;SDS011;1966;49.908;9.156;2023-04-25T02:53:14;9.30;;;7.37;;
3901;SDS011;1966;49.908;9.156;2023-04-25T02:58:13;10.87;;;8.10;;
3901;SDS011;1966;49.908;9.156;2023-04-25T03:03:13;10.67;;;7.77;;
3901;SDS011;1966;49.908;9.156;2023-04-25T03:08:16;10.17;;;7.50;;
3901;SDS011;1966;49.908;9.156;2023-04-25T03:13:16;13.90;;;7.53;;
3901;SDS011;1966;49.908;9.156;2023-04-25T03:18:15;12.13;;;7.70;;
3901;SDS011;1966;49.908;9.156;2023-04-25T03:23:14;9.80;;;8.27;;
3901;SDS011;1966;49.908;9.156;2023-04-25T03:28:15;10.30;;;7.90;;
3901;SDS011;1966;49.908;9.156;2023-04-25T03:33:14;9.40;;;7.47;;
3901;SDS011;1966;49.908;9.156;2023-04-25T03:38:13;10.67;;;8.50;;
3901;SDS011;1966;49.908;9.156;2023-04-25T03:43:13;12.93;;;9.40;;
3901;SDS011;1966;49.908;9.156;2023-04-25T03:48:14;12.90;;;8.87;;
3901;SDS011;1966;49.908;9.156;2023-04-25T03:53:13;10.87;;;7.97;;
3901;SDS011;1966;49.908;9.156;2023-04-25T03:58:12;10.93;;;8.43;;
3901;SDS011;1966;49.908;9.156;2023-04-25T04:03:11;12.10;;;8.67;;
3901;SDS011;1966;49.908;9.156;2023-04-25T04:08:12;16.33;;;8.60;;
3901;SDS011;1966;49.908;9.156;2023-04-25T04:13:11;10.10;;;8.10;;
3901;SDS011;1966;49.908;9.156;2023-04-25T04:18:10;10.97;;;7.87;;
3901;SDS011;1966;49.908;9.156;2023-04-25T04:23:10;9.87;;;7.33;;
3901;SDS011;1966;49.908;9.156;2023-04-25T04:28:11;10.70;;;8.07;;
3901;SDS011;1966;49.908;9.156;2023-04-25T04:33:11;11.00;;;8.40;;
3901;SDS011;1966;49.908;9.156;2023-04-25T04:38:11;10.97;;;9.30;;
3901;SDS011;1966;49.908;9.156;2023-04-25T04:43:11;10.27;;;8.40;;
3901;SDS011;1966;49.908;9.156;2023-04-25T04:48:12;11.93;;;9.17;;
3901;SDS011;1966;49.908;9.156;2023-04-25T04:53:12;16.80;;;10.40;;
3901;SDS011;1966;49.908;9.156;2023-04-25T04:58:12;12.20;;;9.53;;
3901;SDS011;1966;49.908;9.156;2023-04-25T05:03:12;16.43;;;9.43;;
3901;SDS011;1966;49.908;9.156;2023-04-25T05:08:11;12.77;;;10.43;;
3901;SDS011;1966;49.908;9.156;2023-04-25T05:13:10;16.20;;;11.10;;
3901;SDS011;1966;49.908;9.156;2023-04-25T05:18:11;14.30;;;10.40;;
3901;SDS011;1966;49.908;9.156;2023-04-25T05:23:10;13.83;;;10.40;;
3901;SDS011;1966;49.908;9.156;2023-04-25T05:28:10;17.80;;;12.40;;
3901;SDS011;1966;49.908;9.156;2023-04-25T05:33:11;16.63;;;12.33;;
3901;SDS011;1966;49.908;9.156;2023-04-25T05:38:10;12.83;;;9.53;;
3901;SDS011;1966;49.908;9.156;2023-04-25T05:43:09;14.40;;;9.90;;
3901;SDS011;1966;49.908;9.156;2023-04-25T05:48:08;13.53;;;8.80;;
3901;SDS011;1966;49.908;9.156;2023-04-25T05:53:09;21.40;;;9.50;;
3901;SDS011;1966;49.908;9.156;2023-04-25T05:58:08;14.80;;;9.20;;
3901;SDS011;1966;49.908;9.156;2023-04-25T06:03:07;15.27;;;8.47;;
3901;SDS011;1966;49.908;9.156;2023-04-25T06:08:09;19.57;;;8.70;;
3901;SDS011;1966;49.908;9.156;2023-04-25T06:13:08;13.83;;;7.97;;
3901;SDS011;1966;49.908;9.156;2023-04-25T06:18:08;15.23;;;7.77;;
3901;SDS011;1966;49.908;9.156;2023-04-25T06:23:07;14.87;;;7.13;;
3901;SDS011;1966;49.908;9.156;2023-04-25T06:28:08;17.10;;;7.30;;
3901;SDS011;1966;49.908;9.156;2023-04-25T06:33:07;13.20;;;7.50;;
3901;SDS011;1966;49.908;9.156;2023-04-25T06:38:07;14.23;;;7.57;;
3901;SDS011;1966;49.908;9.156;2023-04-25T06:43:08;13.17;;;6.27;;
3901;SDS011;1966;49.908;9.156;2023-04-25T06:48:07;16.77;;;7.40;;
3901;SDS011;1966;49.908;9.156;2023-04-25T06:53:07;13.17;;;6.20;;
3901;SDS011;1966;49.908;9.156;2023-04-25T06:58:08;9.47;;;6.20;;
3901;SDS011;1966;49.908;9.156;2023-04-25T07:03:07;12.77;;;6.17;;
3901;SDS011;1966;49.908;9.156;2023-04-25T07:08:06;9.80;;;5.00;;
3901;SDS011;1966;49.908;9.156;2023-04-25T07:13:05;11.20;;;5.33;;
3901;SDS011;1966;49.908;9.156;2023-04-25T07:18:06;8.10;;;6.20;;
3901;SDS011;1966;49.908;9.156;2023-04-25T07:23:05;8.00;;;5.50;;
3901;SDS011;1966;49.908;9.156;2023-04-25T07:28:04;9.20;;;5.93;;
3901;SDS011;1966;49.908;9.156;2023-04-25T07:33:05;6.93;;;5.23;;
3901;SDS011;1966;49.908;9.156;2023-04-25T07:38:04;11.00;;;5.60;;
3901;SDS011;1966;49.908;9.156;2023-04-25T07:43:04;8.30;;;5.80;;
3901;SDS011;1966;49.908;9.156;2023-04-25T07:48:03;8.50;;;4.80;;
3901;SDS011;1966;49.908;9.156;2023-04-25T07:53:04;11.43;;;6.17;;
3901;SDS011;1966;49.908;9.156;2023-04-25T07:58:04;12.13;;;6.60;;
3901;SDS011;1966;49.908;9.156;2023-04-25T08:03:03;7.00;;;5.50;;
3901;SDS011;1966;49.908;9.156;2023-04-25T08:08:02;10.70;;;5.20;;
3901;SDS011;1966;49.908;9.156;2023-04-25T08:13:05;8.10;;;5.47;;
3901;SDS011;1966;49.908;9.156;2023-04-25T08:18:04;10.50;;;4.97;;
3901;SDS011;1966;49.908;9.156;2023-04-25T08:23:04;9.20;;;5.50;;
3901;SDS011;1966;49.908;9.156;2023-04-25T08:28:03;7.63;;;5.17;;
3901;SDS011;1966;49.908;9.156;2023-04-25T08:33:03;10.23;;;5.07;;
3901;SDS011;1966;49.908;9.156;2023-04-25T08:38:03;9.13;;;5.23;;
3901;SDS011;1966;49.908;9.156;2023-04-25T08:43:02;5.73;;;5.13;;
3901;SDS011;1966;49.908;9.156;2023-04-25T08:48:03;7.60;;;5.43;;
3901;SDS011;1966;49.908;9.156;2023-04-25T08:53:03;6.30;;;4.80;;
3901;SDS011;1966;49.908;9.156;2023-04-25T08:58:03;5.90;;;4.57;;
3901;SDS011;1966;49.908;9.156;2023-04-25T09:03:04;10.13;;;5.67;;
3901;SDS011;1966;49.908;9.156;2023-04-25T09:08:04;5.53;;;4.57;;
3901;SDS011;1966;49.908;9.156;2023-04-25T09:13:04;6.30;;;4.60;;
3901;SDS011;1966;49.908;9.156;2023-04-25T09:18:05;8.33;;;4.60;;
3901;SDS011;1966;49.908;9.156;2023-04-25T09:23:04;7.83;;;4.23;;
3901;SDS011;1966;49.908;9.156;2023-04-25T09:28:05;4.33;;;3.80;;
3901;SDS011;1966;49.908;9.156;2023-04-25T09:33:07;8.80;;;5.30;;
3901;SDS011;1966;49.908;9.156;2023-04-25T09:38:07;9.83;;;4.03;;
3901;SDS011;1966;49.908;9.156;2023-04-25T09:43:08;5.73;;;4.20;;
3901;SDS011;1966;49.908;9.156;2023-04-25T09:48:09;6.03;;;4.43;;
3901;SDS011;1966;49.908;9.156;2023-04-25T09:53:08;6.90;;;4.77;;
3901;SDS011;1966;49.908;9.156;2023-04-25T09:58:07;6.43;;;4.80;;
3901;SDS011;1966;49.908;9.156;2023-04-25T10:03:09;9.13;;;5.30;;
3901;SDS011;1966;49.908;9.156;2023-04-25T10:08:09;8.90;;;4.50;;
3901;SDS011;1966;49.908;9.156;2023-04-25T10:13:10;7.50;;;4.53;;
3901;SDS011;1966;49.908;9.156;2023-04-25T10:18:13;4.80;;;4.00;;
3901;SDS011;1966;49.908;9.156;2023-04-25T10:23:13;7.23;;;4.83;;
3901;SDS011;1966;49.908;9.156;2023-04-25T10:28:12;6.67;;;4.63;;
3901;SDS011;1966;49.908;9.156;2023-04-25T10:33:17;10.73;;;5.20;;
3901;SDS011;1966;49.908;9.156;2023-04-25T10:38:16;8.10;;;4.60;;
3901;SDS011;1966;49.908;9.156;2023-04-25T10:43:33;7.30;;;4.30;;
3901;SDS011;1966;49.908;9.156;2023-04-25T10:48:34;8.93;;;6.50;;
3901;SDS011;1966;49.908;9.156;2023-04-25T10:53:33;6.77;;;4.33;;
3901;SDS011;1966;49.908;9.156;2023-04-25T10:58:32;10.13;;;5.07;;
3901;SDS011;1966;49.908;9.156;2023-04-25T11:03:33;8.73;;;6.30;;
3901;SDS011;1966;49.908;9.156;2023-04-25T11:08:37;7.20;;;5.00;;
3901;SDS011;1966;49.908;9.156;2023-04-25T11:13:41;7.60;;;5.10;;
3901;SDS011;1966;49.908;9.156;2023-04-25T11:18:42;8.23;;;4.90;;
3901;SDS011;1966;49.908;9.156;2023-04-25T11:23:43;9.67;;;5.03;;
3901;SDS011;1966;49.908;9.156;2023-04-25T11:28:44;10.20;;;5.00;;
3901;SDS011;1966;49.908;9.156;2023-04-25T11:33:45;6.13;;;4.60;;
3901;SDS011;1966;49.908;9.156;2023-04-25T11:38:45;13.07;;;8.30;;
3901;SDS011;1966;49.908;9.156;2023-04-25T11:43:44;6.17;;;4.53;;
3901;SDS011;1966;49.908;9.156;2023-04-25T11:48:45;6.60;;;4.87;;
3901;SDS011;1966;49.908;9.156;2023-04-25T11:53:45;8.00;;;5.30;;
3901;SDS011;1966;49.908;9.156;2023-04-25T11:58:54;7.37;;;5.40;;
3901;SDS011;1966;49.908;9.156;2023-04-25T12:03:54;12.23;;;6.10;;
3901;SDS011;1966;49.908;9.156;2023-04-25T12:09:03;10.23;;;5.53;;
3901;SDS011;1966;49.908;9.156;2023-04-25T12:14:02;6.13;;;4.77;;
3901;SDS011;1966;49.908;9.156;2023-04-25T12:19:04;6.70;;;5.53;;
3901;SDS011;1966;49.908;9.156;2023-04-25T12:24:10;6.90;;;5.20;;
3901;SDS011;1966;49.908;9.156;2023-04-25T12:29:14;9.03;;;5.83;;
3901;SDS011;1966;49.908;9.156;2023-04-25T12:34:15;7.50;;;4.30;;
3901;SDS011;1966;49.908;9.156;2023-04-25T12:39:15;6.30;;;4.30;;
3901;SDS011;1966;49.908;9.156;2023-04-25T12:44:14;6.03;;;3.97;;
3901;SDS011;1966;49.908;9.156;2023-04-25T12:49:15;6.83;;;4.53;;
3901;SDS011;1966;49.908;9.156;2023-04-25T12:54:14;6.30;;;4.20;;
3901;SDS011;1966;49.908;9.156;2023-04-25T12:59:14;5.90;;;4.30;;
3901;SDS011;1966;49.908;9.156;2023-04-25T13:04:13;6.13;;;4.50;;
3901;SDS011;1966;49.908;9.156;2023-04-25T13:09:14;7.30;;;5.10;;
3901;SDS011;1966;49.908;9.156;2023-04-25T13:14:13;5.20;;;4.17;;
3901;SDS011;1966;49.908;9.156;2023-04-25T13:19:13;6.17;;;4.43;;
3901;SDS011;1966;49.908;9.156;2023-04-25T13:24:13;5.30;;;4.17;;
3901;SDS011;1966;49.908;9.156;2023-04-25T13:29:13;4.37;;;3.30;;
3901;SDS011;1966;49.908;9.156;2023-04-25T13:34:12;7.53;;;4.23;;
3901;SDS011;1966;49.908;9.156;2023-04-25T13:39:13;6.37;;;3.90;;
3901;SDS011;1966;49.908;9.156;2023-04-25T13:44:12;7.23;;;4.03;;
3901;SDS011;1966;49.908;9.156;2023-04-25T13:49:11;4.60;;;4.07;;
3901;SDS011;1966;49.908;9.156;2023-04-25T13:54:11;7.43;;;4.50;;
3901;SDS011;1966;49.908;9.156;2023-04-25T13:59:11;5.53;;;3.93;;
3901;SDS011;1966;49.908;9.156;2023-04-25T14:04:11;6.23;;;3.73;;
3901;SDS011;1966;49.908;9.156;2023-04-25T14:09:10;3.50;;;3.20;;
3901;SDS011;1966;49.908;9.156;2023-04-25T14:14:11;6.10;;;3.97;;
3901;SDS011;1966;49.908;9.156;2023-04-25T14:19:13;6.40;;;4.47;;
3901;SDS011;1966;49.908;9.156;2023-04-25T14:24:13;5.70;;;3.00;;
3901;SDS011;1966;49.908;9.156;2023-04-25T14:29:13;7.83;;;4.10;;
3901;SDS011;1966;49.908;9.156;2023-04-25T14:34:13;6.13;;;3.47;;
3901;SDS011;1966;49.908;9.156;2023-04-25T14:39:12;6.57;;;3.57;;
3901;SDS011;1966;49.908;9.156;2023-04-25T14:44:14;9.30;;;5.43;;
3901;SDS011;1966;49.908;9.156;2023-04-25T14:49:13;7.10;;;4.63;;
3901;SDS011;1966;49.908;9.156;2023-04-25T14:54:12;5.03;;;3.50;;
3901;SDS011;1966;49.908;9.156;2023-04-25T14:59:13;6.77;;;4.40;;
3901;SDS011;1966;49.908;9.156;2023-04-25T15:04:12;8.83;;;5.00;;
3901;SDS011;1966;49.908;9.156;2023-04-25T15:09:12;9.13;;;5.13;;
3901;SDS011;1966;49.908;9.156;2023-04-25T15:14:11;5.07;;;4.40;;
3901;SDS011;1966;49.908;9.156;2023-04-25T15:19:11;7.00;;;4.80;;
3901;SDS011;1966;49.908;9.156;2023-04-25T15:24:11;13.63;;;7.97;;
3901;SDS011;1966;49.908;9.156;2023-04-25T15:29:12;8.83;;;5.83;;
3901;SDS011;1966;49.908;9.156;2023-04-25T15:34:13;10.03;;;4.27;;
3901;SDS011;1966;49.908;9.156;2023-04-25T15:39:12;7.77;;;4.20;;
3901;SDS011;1966;49.908;9.156;2023-04-25T15:44:11;9.83;;;5.20;;
3901;SDS011;1966;49.908;9.156;2023-04-25T15:49:10;8.70;;;4.47;;
3901;SDS011;1966;49.908;9.156;2023-04-25T15:54:11;9.27;;;4.60;;
3901;SDS011;1966;49.908;9.156;2023-04-25T15:59:11;7.33;;;4.90;;
3901;SDS011;1966;49.908;9.156;2023-04-25T16:04:10;7.73;;;4.60;;
3901;SDS011;1966;49.908;9.156;2023-04-25T16:09:09;7.00;;;3.87;;
3901;SDS011;1966;49.908;9.156;2023-04-25T16:14:10;7.10;;;4.10;;
3901;SDS011;1966;49.908;9.156;2023-04-25T16:19:09;4.20;;;3.60;;
3901;SDS011;1966;49.908;9.156;2023-04-25T16:24:09;5.10;;;4.30;;
3901;SDS011;1966;49.908;9.156;2023-04-25T16:29:08;4.97;;;3.53;;
3901;SDS011;1966;49.908;9.156;2023-04-25T16:34:09;8.13;;;3.80;;
3901;SDS011;1966;49.908;9.156;2023-04-25T16:39:08;6.53;;;3.70;;
3901;SDS011;1966;49.908;9.156;2023-04-25T16:44:08;5.27;;;3.43;;
3901;SDS011;1966;49.908;9.156;2023-04-25T16:49:09;6.60;;;3.50;;
3901;SDS011;1966;49.908;9.156;2023-04-25T16:54:08;9.50;;;4.00;;
3901;SDS011;1966;49.908;9.156;2023-04-25T16:59:07;6.50;;;3.50;;
3901;SDS011;1966;49.908;9.156;2023-04-25T17:04:06;7.00;;;3.60;;
3901;SDS011;1966;49.908;9.156;2023-04-25T17:09:07;6.97;;;3.67;;
3901;SDS011;1966;49.908;9.156;2023-04-25T17:14:07;6.07;;;4.07;;
3901;SDS011;1966;49.908;9.156;2023-04-25T17:19:07;6.37;;;3.73;;
3901;SDS011;1966;49.908;9.156;2023-04-25T17:24:08;4.87;;;3.30;;
3901;SDS011;1966;49.908;9.156;2023-04-25T17:29:08;7.00;;;3.47;;
3901;SDS011;1966;49.908;9.156;2023-04-25T17:34:09;4.73;;;3.40;;
3901;SDS011;1966;49.908;9.156;2023-04-25T17:39:16;6.17;;;3.97;;
3901;SDS011;1966;49.908;9.156;2023-04-25T17:44:15;5.13;;;3.13;;
3901;SDS011;1966;49.908;9.156;2023-04-25T17:49:14;4.80;;;3.40;;
3901;SDS011;1966;49.908;9.156;2023-04-25T17:54:13;5.20;;;3.53;;
3901;SDS011;1966;49.908;9.156;2023-04-25T17:59:14;7.97;;;4.40;;
3901;SDS011;1966;49.908;9.156;2023-04-25T18:04:14;9.93;;;3.70;;
3901;SDS011;1966;49.908;9.156;2023-04-25T18:09:14;5.40;;;3.50;;
3901;SDS011;1966;49.908;9.156;2023-04-25T18:14:21;5.90;;;4.07;;
3901;SDS011;1966;49.908;9.156;2023-04-25T18:19:22;8.43;;;3.77;;
3901;SDS011;1966;49.908;9.156;2023-04-25T18:24:22;7.03;;;4.30;;
3901;SDS011;1966;49.908;9.156;2023-04-25T18:29:25;6.13;;;4.40;;
3901;SDS011;1966;49.908;9.156;2023-04-25T18:34:25;7.93;;;4.03;;
3901;SDS011;1966;49.908;9.156;2023-04-25T18:39:24;7.10;;;4.40;;
3901;SDS011;1966;49.908;9.156;2023-04-25T18:44:25;12.47;;;5.40;;
3901;SDS011;1966;49.908;9.156;2023-04-25T18:49:24;10.53;;;4.50;;
3901;SDS011;1966;49.908;9.156;2023-04-25T18:54:24;9.10;;;5.03;;
3901;SDS011;1966;49.908;9.156;2023-04-25T18:59:25;8.83;;;4.30;;
3901;SDS011;1966;49.908;9.156;2023-04-25T19:04:24;8.93;;;6.90;;
3901;SDS011;1966;49.908;9.156;2023-04-25T19:09:24;6.03;;;4.30;;
3901;SDS011;1966;49.908;9.156;2023-04-25T19:14:25;12.90;;;4.57;;
3901;SDS011;1966;49.908;9.156;2023-04-25T19:19:25;15.03;;;12.10;;
3901;SDS011;1966;49.908;9.156;2023-04-25T19:24:25;5.40;;;4.43;;
3901;SDS011;1966;49.908;9.156;2023-04-25T19:29:25;7.93;;;4.23;;
3901;SDS011;1966;49.908;9.156;2023-04-25T19:34:27;5.20;;;4.00;;
3901;SDS011;1966;49.908;9.156;2023-04-25T19:39:26;8.40;;;4.17;;
3901;SDS011;1966;49.908;9.156;2023-04-25T19:44:27;3.83;;;3.23;;
3901;SDS011;1966;49.908;9.156;2023-04-25T19:49:26;7.70;;;4.23;;
3901;SDS011;1966;49.908;9.156;2023-04-25T19:54:25;4.70;;;4.20;;
3901;SDS011;1966;49.908;9.156;2023-04-25T19:59:24;7.63;;;4.03;;
3901;SDS011;1966;49.908;9.156;2023-04-25T20:04:25;11.80;;;5.17;;
3901;SDS011;1966;49.908;9.156;2023-04-25T20:09:25;7.10;;;4.07;;
3901;SDS011;1966;49.908;9.156;2023-04-25T20:14:24;5.20;;;4.00;;
3901;SDS011;1966;49.908;9.156;2023-04-25T20:19:23;6.07;;;4.10;;
3901;SDS011;1966;49.908;9.156;2023-04-25T20:24:24;8.30;;;4.80;;
3901;SDS011;1966;49.908;9.156;2023-04-25T20:29:24;7.17;;;4.33;;
3901;SDS011;1966;49.908;9.156;2023-04-25T20:34:23;5.37;;;4.23;;
3901;SDS011;1966;49.908;9.156;2023-04-25T20:39:25;6.50;;;4.00;;
3901;SDS011;1966;49.908;9.156;2023-04-25T20:44:24;5.57;;;3.93;;
3901;SDS011;1966;49.908;9.156;2023-04-25T20:49:23;6.53;;;4.63;;
3901;SDS011;1966;49.908;9.156;2023-04-25T20:54:24;7.33;;;4.80;;
3901;SDS011;1966;49.908;9.156;2023-04-25T20:59:24;8.20;;;5.07;;
3901;SDS011;1966;49.908;9.156;2023-04-25T21:04:23;7.97;;;4.70;;
3901;SDS011;1966;49.908;9.156;2023-04-25T21:09:22;7.43;;;5.27;;
3901;SDS011;1966;49.908;9.156;2023-04-25T21:14:23;7.13;;;4.80;;
3901;SDS011;1966;49.908;9.156;2023-04-25T21:19:23;9.63;;;5.50;;
3901;SDS011;1966;49.908;9.156;2023-04-25T21:24:22;8.00;;;5.83;;
3901;SDS011;1966;49.908;9.156;2023-04-25T21:29:25;7.63;;;5.80;;
3901;SDS011;1966;49.908;9.156;2023-04-25T21:34:24;6.60;;;5.30;;
3901;SDS011;1966;49.908;9.156;2023-04-25T21:39:23;11.77;;;6.00;;
3901;SDS011;1966;49.908;9.156;2023-04-25T21:44:24;7.97;;;5.60;;
3901;SDS011;1966;49.908;9.156;2023-04-25T21:49:25;7.90;;;5.50;;
3901;SDS011;1966;49.908;9.156;2023-04-25T21:54:26;6.07;;;5.23;;
3901;SDS011;1966;49.908;9.156;2023-04-25T21:59:26;8.07;;;4.90;;
3901;SDS011;1966;49.908;9.156;2023-04-25T22:04:26;9.23;;;5.37;;
3901;SDS011;1966;49.908;9.156;2023-04-25T22:09:25;5.80;;;4.97;;
3901;SDS011;1966;49.908;9.156;2023-04-25T22:14:26;5.40;;;4.87;;
3901;SDS011;1966;49.908;9.156;2023-04-25T22:19:26;8.47;;;4.90;;
3901;SDS011;1966;49.908;9.156;2023-04-25T22:24:27;7.60;;;5.40;;
3901;SDS011;1966;49.908;9.156;2023-04-25T22:29:28;8.40;;;5.27;;
3901;SDS011;1966;49.908;9.156;2023-04-25T22:34:27;11.93;;;5.40;;
3901;SDS011;1966;49.908;9.156;2023-04-25T22:39:26;6.50;;;4.70;;
3901;SDS011;1966;49.908;9.156;2023-04-25T22:44:28;5.10;;;4.60;;
3901;SDS011;1966;49.908;9.156;2023-04-25T22:49:27;7.10;;;5.00;;
3901;SDS011;1966;49.908;9.156;2023-04-25T22:54:26;11.70;;;4.97;;
3901;SDS011;1966;49.908;9.156;2023-04-25T22:59:25;5.90;;;4.47;;
3901;SDS011;1966;49.908;9.156;2023-04-25T23:04:26;11.67;;;5.30;;
3901;SDS011;1966;49.908;9.156;2023-04-25T23:09:26;8.90;;;4.80;;
3901;SDS011;1966;49.908;9.156;2023-04-25T23:14:25;8.87;;;5.20;;
3901;SDS011;1966;49.908;9.156;2023-04-25T23:19:24;5.73;;;4.73;;
3901;SDS011;1966;49.908;9.156;2023-04-25T23:24:26;8.80;;;5.23;;
3901;SDS011;1966;49.908;9.156;2023-04-25T23:29:25;7.07;;;4.40;;
3901;SDS011;1966;49.908;9.156;2023-04-25T23:34:25;5.60;;;4.80;;
3901;SDS011;1966;49.908;9.156;2023-04-25T23:39:28;7.47;;;4.90;;
3901;SDS011;1966;49.908;9.156;2023-04-25T23:44:27;5.50;;;4.77;;
3901;SDS011;1966;49.908;9.156;2023-04-25T23:49:27;5.20;;;4.00;;
3901;SDS011;1966;49.908;9.156;2023-04-25T23:54:26;6.10;;;4.63;;
3901;SDS011;1966;49.908;9.156;2023-04-25T23:59:26;6.97;;;4.67;;
